createdAt,value
2022-10-14T00:13:28.874Z,28.8748
2022-10-14T00:28:30.920Z,29.6288
2022-10-14T00:43:32.872Z,29.8758
2022-10-14T00:58:34.799Z,29.4635
2022-10-14T01:13:36.730Z,28.6538
2022-10-14T01:28:38.697Z,28.5727
2022-10-14T01:43:40.614Z,29.4109
2022-10-14T01:58:42.523Z,28.5238
2022-10-14T02:13:44.397Z,28.6637
2022-10-14T02:28:46.421Z,28.5566
2022-10-14T02:43:48.447Z,28.6507
2022-10-14T02:58:50.367Z,28.2316
2022-10-14T03:13:52.266Z,28.7126
2022-10-14T03:28:54.244Z,28.6018
2022-10-14T03:43:56.236Z,27.9066
2022-10-14T03:58:58.158Z,28.2186
2022-10-14T04:14:00.046Z,27.3346
2022-10-14T04:29:02.011Z,29.4369
2022-10-14T04:44:03.974Z,28.3164
2022-10-14T04:59:05.907Z,29.0147
2022-10-14T05:14:07.795Z,29.2456
2022-10-14T05:29:09.758Z,26.7236
2022-10-14T05:44:11.673Z,27.7568
2022-10-14T05:59:13.585Z,28.0428
2022-10-14T06:14:15.475Z,28.4068
2022-10-14T06:29:17.374Z,27.2857
2022-10-14T06:44:19.261Z,27.4547
2022-10-14T06:59:21.188Z,28.2149
2022-10-14T07:14:23.112Z,27.3247
2022-10-14T07:29:24.984Z,27.3798
2022-10-14T07:44:27.507Z,28.2118
2022-10-14T07:59:29.592Z,27.2498
2022-10-14T08:14:31.537Z,27.7537
2022-10-14T08:29:33.433Z,26.5707
2022-10-14T08:44:35.399Z,26.8598
2022-10-14T08:59:37.302Z,27.5977
2022-10-14T09:14:39.191Z,26.9539
2022-10-14T09:29:41.095Z,26.6456
2022-10-14T09:44:42.981Z,27.5618
2022-10-14T09:59:44.864Z,26.3398
2022-10-14T10:14:46.787Z,27.7079
2022-10-14T10:29:48.694Z,26.4698
2022-10-14T10:44:50.635Z,25.527
2022-10-14T10:59:52.574Z,25.2181
2022-10-14T11:14:54.514Z,25.1531
2022-10-14T11:29:56.409Z,25.2633
2022-10-14T11:44:58.331Z,24.8442
2022-10-14T12:00:00.293Z,25.3543
2022-10-14T12:15:02.229Z,25.2045
2022-10-14T12:30:04.144Z,24.9705
2022-10-14T12:45:06.047Z,24.8894
2022-10-14T13:00:07.911Z,25.0485
2022-10-14T13:15:09.847Z,24.6715
2022-10-14T13:30:11.800Z,24.5644
2022-10-14T13:45:13.707Z,24.8987
2022-10-14T14:00:41.286Z,24.8535
2022-10-14T14:15:43.625Z,24.7495
2022-10-14T14:30:45.541Z,24.5805
2022-10-14T14:45:47.437Z,24.6715
2022-10-14T15:00:49.302Z,25.0386
2022-10-14T15:15:51.217Z,24.9705
2022-10-14T15:30:53.150Z,23.4037
2022-10-14T15:45:55.066Z,25.6075
2022-10-14T16:00:56.965Z,24.4344
2022-10-14T16:15:58.938Z,24.1521
2022-10-14T16:31:00.865Z,25.2342
2022-10-14T16:46:02.777Z,25.748
2022-10-14T17:01:06.510Z,25.306
2022-10-14T17:16:11.266Z,26.073
2022-10-14T17:31:13.197Z,27.2009
2022-10-14T17:46:15.127Z,25.93
2022-10-14T18:01:17.080Z,24.8312
2022-10-14T18:16:19.019Z,25.8328
2022-10-14T18:31:20.955Z,27.451
2022-10-14T18:46:22.867Z,24.0772
2022-10-14T19:01:24.792Z,23.4792
2022-10-14T19:16:26.712Z,24.1193
2022-10-14T19:31:28.642Z,24.6486
2022-10-14T19:46:30.638Z,24.8566
2022-10-14T20:01:32.844Z,24.5155
2022-10-14T20:16:34.773Z,24.6424
2022-10-14T20:31:36.678Z,24.9773
2022-10-14T20:46:38.668Z,24.9414
2022-10-14T21:01:40.723Z,25.6366
2022-10-14T21:16:42.691Z,25.6366
2022-10-14T21:31:44.640Z,25.5784
2022-10-14T21:46:46.562Z,26.1894
2022-10-14T22:01:48.511Z,26.1182
2022-10-14T22:16:50.396Z,26.5992
2022-10-14T22:31:52.323Z,27.8311
2022-10-14T22:46:54.235Z,28.1462
2022-10-14T23:01:56.103Z,28.5882
2022-10-14T23:16:58.053Z,28.2539
2022-10-14T23:31:59.960Z,29.063
2022-10-14T23:47:01.871Z,28.7417
